sensor_id;sensor_type;location;lat;lon;timestamp;P1;durP1;ratioP1;P2;durP2;ratioP2
37355;SDS011;48747;50.250;18.848;2022-12-31T00:01:03;119.70;;;61.35;;
37355;SDS011;48747;50.250;18.848;2022-12-31T00:03:08;127.60;;;63.92;;
37355;SDS011;48747;50.250;18.848;2022-12-31T00:05:11;123.45;;;63.05;;
37355;SDS011;48747;50.250;18.848;2022-12-31T00:07:14;120.35;;;62.67;;
37355;SDS011;48747;50.250;18.848;2022-12-31T00:09:18;117.80;;;63.13;;
37355;SDS011;48747;50.250;18.848;2022-12-31T00:11:23;116.85;;;60.98;;
37355;SDS011;48747;50.250;18.848;2022-12-31T00:13:27;113.50;;;60.05;;
37355;SDS011;48747;50.250;18.848;2022-12-31T00:15:30;113.80;;;59.45;;
37355;SDS011;48747;50.250;18.848;2022-12-31T00:17:33;117.55;;;61.77;;
37355;SDS011;48747;50.250;18.848;2022-12-31T00:19:36;118.55;;;61.83;;
37355;SDS011;48747;50.250;18.848;2022-12-31T00:21:40;120.30;;;61.73;;
37355;SDS011;48747;50.250;18.848;2022-12-31T00:23:45;117.42;;;59.90;;
37355;SDS011;48747;50.250;18.848;2022-12-31T00:25:51;105.58;;;56.60;;
37355;SDS011;48747;50.250;18.848;2022-12-31T00:27:54;109.55;;;55.55;;
37355;SDS011;48747;50.250;18.848;2022-12-31T00:29:59;112.20;;;53.85;;
37355;SDS011;48747;50.250;18.848;2022-12-31T00:32:02;104.10;;;53.80;;
37355;SDS011;48747;50.250;18.848;2022-12-31T00:34:06;106.85;;;53.60;;
37355;SDS011;48747;50.250;18.848;2022-12-31T00:36:10;98.70;;;50.28;;
37355;SDS011;48747;50.250;18.848;2022-12-31T00:38:15;98.90;;;49.18;;
37355;SDS011;48747;50.250;18.848;2022-12-31T00:40:18;99.52;;;49.67;;
37355;SDS011;48747;50.250;18.848;2022-12-31T00:42:21;96.85;;;48.33;;
37355;SDS011;48747;50.250;18.848;2022-12-31T00:44:24;96.55;;;49.48;;
37355;SDS011;48747;50.250;18.848;2022-12-31T00:46:27;96.25;;;48.17;;
37355;SDS011;48747;50.250;18.848;2022-12-31T00:48:32;94.07;;;49.08;;
37355;SDS011;48747;50.250;18.848;2022-12-31T00:50:36;99.77;;;48.80;;
37355;SDS011;48747;50.250;18.848;2022-12-31T00:52:39;95.90;;;51.20;;
37355;SDS011;48747;50.250;18.848;2022-12-31T00:54:42;94.52;;;50.10;;
37355;SDS011;48747;50.250;18.848;2022-12-31T00:56:45;97.97;;;50.63;;
37355;SDS011;48747;50.250;18.848;2022-12-31T00:58:48;96.63;;;50.00;;
37355;SDS011;48747;50.250;18.848;2022-12-31T01:00:52;104.23;;;51.05;;
37355;SDS011;48747;50.250;18.848;2022-12-31T01:02:55;103.92;;;52.15;;
37355;SDS011;48747;50.250;18.848;2022-12-31T01:04:58;108.05;;;52.48;;
37355;SDS011;48747;50.250;18.848;2022-12-31T01:07:01;98.15;;;49.58;;
37355;SDS011;48747;50.250;18.848;2022-12-31T01:09:05;105.50;;;52.98;;
37355;SDS011;48747;50.250;18.848;2022-12-31T01:11:14;118.67;;;56.83;;
37355;SDS011;48747;50.250;18.848;2022-12-31T01:13:20;101.78;;;51.70;;
37355;SDS011;48747;50.250;18.848;2022-12-31T01:15:23;90.92;;;47.62;;
37355;SDS011;48747;50.250;18.848;2022-12-31T01:17:26;91.20;;;45.45;;
37355;SDS011;48747;50.250;18.848;2022-12-31T01:19:31;80.45;;;42.10;;
37355;SDS011;48747;50.250;18.848;2022-12-31T01:21:35;78.15;;;40.80;;
37355;SDS011;48747;50.250;18.848;2022-12-31T01:23:39;83.72;;;44.27;;
37355;SDS011;48747;50.250;18.848;2022-12-31T01:25:42;85.03;;;42.83;;
37355;SDS011;48747;50.250;18.848;2022-12-31T01:27:45;86.22;;;44.10;;
37355;SDS011;48747;50.250;18.848;2022-12-31T01:29:49;75.80;;;39.60;;
37355;SDS011;48747;50.250;18.848;2022-12-31T01:31:52;74.12;;;40.43;;
37355;SDS011;48747;50.250;18.848;2022-12-31T01:33:55;84.32;;;42.80;;
37355;SDS011;48747;50.250;18.848;2022-12-31T01:36:05;78.47;;;39.45;;
37355;SDS011;48747;50.250;18.848;2022-12-31T01:38:05;77.42;;;39.42;;
37355;SDS011;48747;50.250;18.848;2022-12-31T01:40:08;73.62;;;36.90;;
37355;SDS011;48747;50.250;18.848;2022-12-31T01:42:12;74.20;;;37.90;;
37355;SDS011;48747;50.250;18.848;2022-12-31T01:46:36;63.78;;;33.70;;
37355;SDS011;48747;50.250;18.848;2022-12-31T01:48:40;63.80;;;31.20;;
37355;SDS011;48747;50.250;18.848;2022-12-31T01:50:44;61.65;;;31.80;;
37355;SDS011;48747;50.250;18.848;2022-12-31T01:52:49;60.73;;;29.75;;
37355;SDS011;48747;50.250;18.848;2022-12-31T01:54:57;51.13;;;27.10;;
37355;SDS011;48747;50.250;18.848;2022-12-31T01:57:01;52.05;;;25.43;;
37355;SDS011;48747;50.250;18.848;2022-12-31T01:59:05;52.10;;;27.70;;
37355;SDS011;48747;50.250;18.848;2022-12-31T02:01:12;49.13;;;26.12;;
37355;SDS011;48747;50.250;18.848;2022-12-31T02:03:17;52.00;;;25.17;;
37355;SDS011;48747;50.250;18.848;2022-12-31T02:05:40;47.95;;;24.65;;
37355;SDS011;48747;50.250;18.848;2022-12-31T02:07:44;49.18;;;24.72;;
37355;SDS011;48747;50.250;18.848;2022-12-31T02:09:49;46.68;;;24.23;;
37355;SDS011;48747;50.250;18.848;2022-12-31T02:11:53;44.27;;;23.73;;
37355;SDS011;48747;50.250;18.848;2022-12-31T02:13:58;45.43;;;24.47;;
37355;SDS011;48747;50.250;18.848;2022-12-31T02:16:04;44.75;;;23.80;;
37355;SDS011;48747;50.250;18.848;2022-12-31T02:18:15;43.90;;;24.20;;
37355;SDS011;48747;50.250;18.848;2022-12-31T02:30:05;48.70;;;24.55;;
37355;SDS011;48747;50.250;18.848;2022-12-31T02:32:22;46.70;;;24.92;;
37355;SDS011;48747;50.250;18.848;2022-12-31T02:34:29;43.52;;;22.98;;
37355;SDS011;48747;50.250;18.848;2022-12-31T02:36:51;43.25;;;23.30;;
37355;SDS011;48747;50.250;18.848;2022-12-31T02:38:56;44.63;;;24.70;;
37355;SDS011;48747;50.250;18.848;2022-12-31T02:41:00;43.95;;;23.85;;
37355;SDS011;48747;50.250;18.848;2022-12-31T02:43:03;42.23;;;23.52;;
37355;SDS011;48747;50.250;18.848;2022-12-31T02:45:07;44.13;;;23.77;;
37355;SDS011;48747;50.250;18.848;2022-12-31T02:49:56;48.58;;;26.40;;
37355;SDS011;48747;50.250;18.848;2022-12-31T02:52:01;44.70;;;23.75;;
37355;SDS011;48747;50.250;18.848;2022-12-31T02:56:49;45.75;;;24.18;;
37355;SDS011;48747;50.250;18.848;2022-12-31T03:01:25;42.60;;;23.40;;
37355;SDS011;48747;50.250;18.848;2022-12-31T03:03:51;45.17;;;23.75;;
37355;SDS011;48747;50.250;18.848;2022-12-31T03:05:56;41.58;;;23.52;;
37355;SDS011;48747;50.250;18.848;2022-12-31T03:08:01;39.45;;;23.85;;
37355;SDS011;48747;50.250;18.848;2022-12-31T03:10:04;45.28;;;24.70;;
37355;SDS011;48747;50.250;18.848;2022-12-31T03:12:09;45.65;;;24.80;;
37355;SDS011;48747;50.250;18.848;2022-12-31T03:14:32;40.92;;;21.48;;
37355;SDS011;48747;50.250;18.848;2022-12-31T03:16:36;42.90;;;22.48;;
37355;SDS011;48747;50.250;18.848;2022-12-31T03:18:44;39.75;;;21.50;;
37355;SDS011;48747;50.250;18.848;2022-12-31T03:20:47;43.17;;;23.85;;
37355;SDS011;48747;50.250;18.848;2022-12-31T03:23:11;39.98;;;21.17;;
37355;SDS011;48747;50.250;18.848;2022-12-31T03:25:16;39.42;;;22.13;;
37355;SDS011;48747;50.250;18.848;2022-12-31T03:27:37;43.90;;;23.12;;
37355;SDS011;48747;50.250;18.848;2022-12-31T03:29:41;41.02;;;21.37;;
37355;SDS011;48747;50.250;18.848;2022-12-31T03:31:44;38.10;;;21.97;;
37355;SDS011;48747;50.250;18.848;2022-12-31T03:33:47;40.10;;;22.07;;
37355;SDS011;48747;50.250;18.848;2022-12-31T03:35:52;38.15;;;21.10;;
37355;SDS011;48747;50.250;18.848;2022-12-31T03:37:55;38.55;;;19.62;;
37355;SDS011;48747;50.250;18.848;2022-12-31T03:39:58;35.45;;;19.10;;
37355;SDS011;48747;50.250;18.848;2022-12-31T03:42:01;36.15;;;19.67;;
37355;SDS011;48747;50.250;18.848;2022-12-31T03:44:04;40.38;;;20.08;;
37355;SDS011;48747;50.250;18.848;2022-12-31T03:46:07;33.98;;;18.15;;
37355;SDS011;48747;50.250;18.848;2022-12-31T03:48:11;37.10;;;19.42;;
37355;SDS011;48747;50.250;18.848;2022-12-31T03:50:15;35.65;;;19.48;;
37355;SDS011;48747;50.250;18.848;2022-12-31T03:52:19;39.35;;;20.23;;
37355;SDS011;48747;50.250;18.848;2022-12-31T03:54:22;36.95;;;20.10;;
37355;SDS011;48747;50.250;18.848;2022-12-31T03:56:25;39.58;;;22.37;;
37355;SDS011;48747;50.250;18.848;2022-12-31T03:58:28;33.30;;;20.48;;
37355;SDS011;48747;50.250;18.848;2022-12-31T04:00:31;38.17;;;20.75;;
37355;SDS011;48747;50.250;18.848;2022-12-31T04:02:35;34.18;;;19.12;;
37355;SDS011;48747;50.250;18.848;2022-12-31T04:04:38;35.88;;;20.15;;
37355;SDS011;48747;50.250;18.848;2022-12-31T04:06:41;37.90;;;19.75;;
37355;SDS011;48747;50.250;18.848;2022-12-31T04:08:45;36.63;;;20.72;;
37355;SDS011;48747;50.250;18.848;2022-12-31T04:10:48;37.98;;;21.35;;
37355;SDS011;48747;50.250;18.848;2022-12-31T04:12:51;42.62;;;22.95;;
37355;SDS011;48747;50.250;18.848;2022-12-31T04:14:54;40.38;;;20.80;;
37355;SDS011;48747;50.250;18.848;2022-12-31T04:17:03;29.35;;;16.17;;
37355;SDS011;48747;50.250;18.848;2022-12-31T04:19:28;31.30;;;18.23;;
37355;SDS011;48747;50.250;18.848;2022-12-31T04:21:31;32.15;;;16.65;;
37355;SDS011;48747;50.250;18.848;2022-12-31T04:23:34;29.85;;;14.95;;
37355;SDS011;48747;50.250;18.848;2022-12-31T04:25:38;30.50;;;15.15;;
37355;SDS011;48747;50.250;18.848;2022-12-31T04:27:41;24.63;;;13.38;;
37355;SDS011;48747;50.250;18.848;2022-12-31T04:29:44;25.57;;;15.58;;
37355;SDS011;48747;50.250;18.848;2022-12-31T04:31:47;28.02;;;14.85;;
37355;SDS011;48747;50.250;18.848;2022-12-31T04:33:50;27.73;;;14.15;;
37355;SDS011;48747;50.250;18.848;2022-12-31T04:35:58;25.00;;;12.30;;
37355;SDS011;48747;50.250;18.848;2022-12-31T04:38:02;25.17;;;13.85;;
37355;SDS011;48747;50.250;18.848;2022-12-31T04:40:06;26.33;;;13.83;;
37355;SDS011;48747;50.250;18.848;2022-12-31T04:42:10;25.82;;;13.90;;
37355;SDS011;48747;50.250;18.848;2022-12-31T04:44:14;24.25;;;13.95;;
37355;SDS011;48747;50.250;18.848;2022-12-31T04:46:18;23.45;;;13.00;;
37355;SDS011;48747;50.250;18.848;2022-12-31T04:48:26;27.40;;;14.63;;
37355;SDS011;48747;50.250;18.848;2022-12-31T04:50:29;23.12;;;13.15;;
37355;SDS011;48747;50.250;18.848;2022-12-31T04:52:32;23.60;;;12.82;;
37355;SDS011;48747;50.250;18.848;2022-12-31T04:54:35;22.67;;;12.95;;
37355;SDS011;48747;50.250;18.848;2022-12-31T04:56:39;22.67;;;13.48;;
37355;SDS011;48747;50.250;18.848;2022-12-31T04:58:42;24.77;;;13.72;;
37355;SDS011;48747;50.250;18.848;2022-12-31T05:00:45;27.13;;;14.20;;
37355;SDS011;48747;50.250;18.848;2022-12-31T05:02:50;24.60;;;13.83;;
37355;SDS011;48747;50.250;18.848;2022-12-31T05:04:53;26.20;;;14.80;;
37355;SDS011;48747;50.250;18.848;2022-12-31T05:06:56;23.92;;;13.25;;
37355;SDS011;48747;50.250;18.848;2022-12-31T05:08:59;27.20;;;14.30;;
37355;SDS011;48747;50.250;18.848;2022-12-31T05:11:05;24.47;;;14.35;;
37355;SDS011;48747;50.250;18.848;2022-12-31T05:13:07;24.98;;;13.43;;
37355;SDS011;48747;50.250;18.848;2022-12-31T05:15:10;23.05;;;13.70;;
37355;SDS011;48747;50.250;18.848;2022-12-31T05:17:13;28.42;;;15.13;;
37355;SDS011;48747;50.250;18.848;2022-12-31T05:19:16;24.02;;;13.55;;
37355;SDS011;48747;50.250;18.848;2022-12-31T05:21:20;24.70;;;13.40;;
37355;SDS011;48747;50.250;18.848;2022-12-31T05:23:23;24.95;;;14.00;;
37355;SDS011;48747;50.250;18.848;2022-12-31T05:25:27;29.20;;;14.55;;
37355;SDS011;48747;50.250;18.848;2022-12-31T05:27:30;24.35;;;13.50;;
37355;SDS011;48747;50.250;18.848;2022-12-31T05:29:33;24.25;;;13.43;;
37355;SDS011;48747;50.250;18.848;2022-12-31T05:31:36;25.15;;;14.30;;
37355;SDS011;48747;50.250;18.848;2022-12-31T05:33:39;28.47;;;14.50;;
37355;SDS011;48747;50.250;18.848;2022-12-31T05:35:42;24.82;;;12.73;;
37355;SDS011;48747;50.250;18.848;2022-12-31T05:37:48;25.52;;;12.80;;
37355;SDS011;48747;50.250;18.848;2022-12-31T05:39:51;24.47;;;13.10;;
37355;SDS011;48747;50.250;18.848;2022-12-31T05:41:56;26.50;;;13.30;;
37355;SDS011;48747;50.250;18.848;2022-12-31T05:43:59;23.77;;;13.55;;
37355;SDS011;48747;50.250;18.848;2022-12-31T05:46:03;26.17;;;13.40;;
37355;SDS011;48747;50.250;18.848;2022-12-31T05:48:06;22.87;;;12.28;;
37355;SDS011;48747;50.250;18.848;2022-12-31T05:50:10;20.45;;;10.72;;
37355;SDS011;48747;50.250;18.848;2022-12-31T05:52:16;23.52;;;12.13;;
37355;SDS011;48747;50.250;18.848;2022-12-31T05:54:19;20.85;;;11.20;;
37355;SDS011;48747;50.250;18.848;2022-12-31T05:56:22;19.27;;;11.25;;
37355;SDS011;48747;50.250;18.848;2022-12-31T05:58:27;17.50;;;9.88;;
37355;SDS011;48747;50.250;18.848;2022-12-31T06:00:30;19.32;;;10.58;;
37355;SDS011;48747;50.250;18.848;2022-12-31T06:02:33;18.23;;;10.93;;
37355;SDS011;48747;50.250;18.848;2022-12-31T06:06:59;20.40;;;10.53;;
37355;SDS011;48747;50.250;18.848;2022-12-31T06:09:02;21.17;;;10.82;;
37355;SDS011;48747;50.250;18.848;2022-12-31T06:11:05;23.98;;;11.45;;
37355;SDS011;48747;50.250;18.848;2022-12-31T06:13:09;17.73;;;9.55;;
37355;SDS011;48747;50.250;18.848;2022-12-31T06:15:12;17.00;;;9.43;;
37355;SDS011;48747;50.250;18.848;2022-12-31T06:17:18;19.85;;;10.53;;
37355;SDS011;48747;50.250;18.848;2022-12-31T06:19:20;18.27;;;9.88;;
37355;SDS011;48747;50.250;18.848;2022-12-31T06:21:25;18.40;;;9.83;;
37355;SDS011;48747;50.250;18.848;2022-12-31T06:23:29;18.20;;;9.10;;
37355;SDS011;48747;50.250;18.848;2022-12-31T06:25:35;20.90;;;10.40;;
37355;SDS011;48747;50.250;18.848;2022-12-31T06:27:38;19.27;;;9.98;;
37355;SDS011;48747;50.250;18.848;2022-12-31T06:29:42;16.90;;;9.13;;
37355;SDS011;48747;50.250;18.848;2022-12-31T06:31:46;14.85;;;9.23;;
37355;SDS011;48747;50.250;18.848;2022-12-31T06:33:49;19.75;;;10.55;;
37355;SDS011;48747;50.250;18.848;2022-12-31T06:35:55;17.50;;;9.70;;
37355;SDS011;48747;50.250;18.848;2022-12-31T06:37:59;16.57;;;9.35;;
37355;SDS011;48747;50.250;18.848;2022-12-31T06:40:03;16.97;;;9.68;;
37355;SDS011;48747;50.250;18.848;2022-12-31T06:42:06;22.40;;;11.08;;
37355;SDS011;48747;50.250;18.848;2022-12-31T06:44:09;19.77;;;10.75;;
37355;SDS011;48747;50.250;18.848;2022-12-31T06:46:14;19.75;;;10.75;;
37355;SDS011;48747;50.250;18.848;2022-12-31T06:48:18;19.48;;;11.28;;
37355;SDS011;48747;50.250;18.848;2022-12-31T06:50:22;23.07;;;12.50;;
37355;SDS011;48747;50.250;18.848;2022-12-31T06:52:30;18.62;;;10.85;;
37355;SDS011;48747;50.250;18.848;2022-12-31T06:54:29;15.38;;;10.63;;
37355;SDS011;48747;50.250;18.848;2022-12-31T06:56:32;17.82;;;11.10;;
37355;SDS011;48747;50.250;18.848;2022-12-31T06:58:36;18.12;;;9.88;;
37355;SDS011;48747;50.250;18.848;2022-12-31T07:00:41;18.65;;;10.60;;
37355;SDS011;48747;50.250;18.848;2022-12-31T07:05:12;19.60;;;10.85;;
37355;SDS011;48747;50.250;18.848;2022-12-31T07:07:20;18.95;;;11.30;;
37355;SDS011;48747;50.250;18.848;2022-12-31T07:12:13;21.55;;;10.98;;
37355;SDS011;48747;50.250;18.848;2022-12-31T07:14:22;26.55;;;12.82;;
37355;SDS011;48747;50.250;18.848;2022-12-31T07:16:50;23.52;;;12.82;;
37355;SDS011;48747;50.250;18.848;2022-12-31T07:19:00;23.90;;;14.10;;
37355;SDS011;48747;50.250;18.848;2022-12-31T07:21:02;24.92;;;14.25;;
37355;SDS011;48747;50.250;18.848;2022-12-31T07:23:07;24.02;;;13.22;;
37355;SDS011;48747;50.250;18.848;2022-12-31T07:25:14;21.12;;;12.85;;
37355;SDS011;48747;50.250;18.848;2022-12-31T07:27:28;23.45;;;12.78;;
37355;SDS011;48747;50.250;18.848;2022-12-31T07:29:53;21.65;;;12.40;;
37355;SDS011;48747;50.250;18.848;2022-12-31T07:32:06;24.07;;;13.88;;
37355;SDS011;48747;50.250;18.848;2022-12-31T07:34:22;28.05;;;14.13;;
37355;SDS011;48747;50.250;18.848;2022-12-31T07:39:15;25.20;;;15.05;;
37355;SDS011;48747;50.250;18.848;2022-12-31T07:41:40;22.32;;;13.30;;
37355;SDS011;48747;50.250;18.848;2022-12-31T07:43:45;24.05;;;13.22;;
37355;SDS011;48747;50.250;18.848;2022-12-31T07:48:28;22.10;;;13.65;;
37355;SDS011;48747;50.250;18.848;2022-12-31T07:50:32;20.55;;;11.85;;
37355;SDS011;48747;50.250;18.848;2022-12-31T07:52:35;24.37;;;12.78;;
37355;SDS011;48747;50.250;18.848;2022-12-31T07:54:38;20.30;;;12.43;;
37355;SDS011;48747;50.250;18.848;2022-12-31T07:56:41;24.37;;;12.98;;
37355;SDS011;48747;50.250;18.848;2022-12-31T08:01:42;23.90;;;12.90;;
37355;SDS011;48747;50.250;18.848;2022-12-31T08:03:50;23.42;;;13.45;;
37355;SDS011;48747;50.250;18.848;2022-12-31T08:06:07;16.32;;;10.13;;
37355;SDS011;48747;50.250;18.848;2022-12-31T08:08:33;30.00;;;15.43;;
37355;SDS011;48747;50.250;18.848;2022-12-31T08:10:47;17.23;;;9.43;;
37355;SDS011;48747;50.250;18.848;2022-12-31T08:13:00;16.55;;;9.63;;
37355;SDS011;48747;50.250;18.848;2022-12-31T08:15:13;19.82;;;12.05;;
37355;SDS011;48747;50.250;18.848;2022-12-31T08:17:17;18.15;;;10.48;;
37355;SDS011;48747;50.250;18.848;2022-12-31T08:19:28;20.77;;;11.20;;
37355;SDS011;48747;50.250;18.848;2022-12-31T08:23:48;19.05;;;10.75;;
37355;SDS011;48747;50.250;18.848;2022-12-31T08:28:31;22.67;;;13.35;;
37355;SDS011;48747;50.250;18.848;2022-12-31T08:30:40;17.90;;;10.55;;
37355;SDS011;48747;50.250;18.848;2022-12-31T08:33:06;18.57;;;10.15;;
37355;SDS011;48747;50.250;18.848;2022-12-31T08:37:37;18.55;;;10.38;;
37355;SDS011;48747;50.250;18.848;2022-12-31T08:42:23;21.37;;;10.82;;
37355;SDS011;48747;50.250;18.848;2022-12-31T08:49:02;19.82;;;10.80;;
37355;SDS011;48747;50.250;18.848;2022-12-31T08:51:07;20.12;;;10.50;;
37355;SDS011;48747;50.250;18.848;2022-12-31T08:53:17;19.20;;;9.90;;
37355;SDS011;48747;50.250;18.848;2022-12-31T08:55:21;20.27;;;11.08;;
37355;SDS011;48747;50.250;18.848;2022-12-31T08:57:27;19.45;;;10.32;;
37355;SDS011;48747;50.250;18.848;2022-12-31T08:59:42;21.55;;;10.78;;
37355;SDS011;48747;50.250;18.848;2022-12-31T09:04:19;19.25;;;11.05;;
37355;SDS011;48747;50.250;18.848;2022-12-31T09:06:27;17.45;;;10.60;;
37355;SDS011;48747;50.250;18.848;2022-12-31T09:11:22;13.23;;;7.97;;
37355;SDS011;48747;50.250;18.848;2022-12-31T09:13:31;18.60;;;9.88;;
37355;SDS011;48747;50.250;18.848;2022-12-31T09:15:45;15.85;;;9.80;;
37355;SDS011;48747;50.250;18.848;2022-12-31T09:17:54;19.85;;;10.13;;
37355;SDS011;48747;50.250;18.848;2022-12-31T09:19:58;20.05;;;10.60;;
37355;SDS011;48747;50.250;18.848;2022-12-31T09:22:01;17.55;;;9.68;;
37355;SDS011;48747;50.250;18.848;2022-12-31T09:24:04;15.88;;;8.95;;
37355;SDS011;48747;50.250;18.848;2022-12-31T09:28:48;14.58;;;8.00;;
37355;SDS011;48747;50.250;18.848;2022-12-31T09:31:02;12.47;;;7.00;;
37355;SDS011;48747;50.250;18.848;2022-12-31T09:33:09;12.80;;;6.70;;
37355;SDS011;48747;50.250;18.848;2022-12-31T09:37:49;13.03;;;7.15;;
37355;SDS011;48747;50.250;18.848;2022-12-31T09:39:59;14.93;;;8.03;;
37355;SDS011;48747;50.250;18.848;2022-12-31T09:54:04;14.23;;;7.90;;
37355;SDS011;48747;50.250;18.848;2022-12-31T09:56:25;17.60;;;7.50;;
37355;SDS011;48747;50.250;18.848;2022-12-31T09:58:37;12.65;;;7.25;;
37355;SDS011;48747;50.250;18.848;2022-12-31T10:00:48;14.18;;;7.45;;
37355;SDS011;48747;50.250;18.848;2022-12-31T10:07:37;13.68;;;7.67;;
37355;SDS011;48747;50.250;18.848;2022-12-31T10:09:49;17.17;;;9.00;;
37355;SDS011;48747;50.250;18.848;2022-12-31T10:12:11;14.47;;;7.20;;
37355;SDS011;48747;50.250;18.848;2022-12-31T10:16:48;15.80;;;8.33;;
37355;SDS011;48747;50.250;18.848;2022-12-31T10:26:15;16.48;;;8.13;;
37355;SDS011;48747;50.250;18.848;2022-12-31T10:31:09;15.85;;;8.70;;
37355;SDS011;48747;50.250;18.848;2022-12-31T10:33:09;17.10;;;9.20;;
37355;SDS011;48747;50.250;18.848;2022-12-31T10:37:47;13.55;;;8.00;;
37355;SDS011;48747;50.250;18.848;2022-12-31T10:44:55;14.55;;;8.28;;
37355;SDS011;48747;50.250;18.848;2022-12-31T10:54:42;16.35;;;8.25;;
37355;SDS011;48747;50.250;18.848;2022-12-31T11:04:12;17.65;;;9.25;;
37355;SDS011;48747;50.250;18.848;2022-12-31T11:06:28;15.50;;;8.03;;
37355;SDS011;48747;50.250;18.848;2022-12-31T11:11:05;12.68;;;8.10;;
37355;SDS011;48747;50.250;18.848;2022-12-31T11:20:36;14.40;;;6.58;;
37355;SDS011;48747;50.250;18.848;2022-12-31T11:25:27;23.02;;;10.53;;
37355;SDS011;48747;50.250;18.848;2022-12-31T11:34:16;18.57;;;9.33;;
37355;SDS011;48747;50.250;18.848;2022-12-31T11:36:27;22.52;;;11.65;;
37355;SDS011;48747;50.250;18.848;2022-12-31T11:38:42;22.07;;;11.45;;
37355;SDS011;48747;50.250;18.848;2022-12-31T11:40:55;20.30;;;9.48;;
37355;SDS011;48747;50.250;18.848;2022-12-31T11:43:10;10.40;;;5.92;;
37355;SDS011;48747;50.250;18.848;2022-12-31T11:48:21;10.68;;;6.53;;
37355;SDS011;48747;50.250;18.848;2022-12-31T11:50:30;10.65;;;6.10;;
37355;SDS011;48747;50.250;18.848;2022-12-31T11:52:53;15.23;;;8.63;;
37355;SDS011;48747;50.250;18.848;2022-12-31T11:55:11;9.40;;;5.50;;
37355;SDS011;48747;50.250;18.848;2022-12-31T11:59:21;11.80;;;6.55;;
37355;SDS011;48747;50.250;18.848;2022-12-31T12:01:26;12.25;;;7.12;;
37355;SDS011;48747;50.250;18.848;2022-12-31T12:03:31;9.28;;;5.70;;
37355;SDS011;48747;50.250;18.848;2022-12-31T12:05:37;11.00;;;6.62;;
37355;SDS011;48747;50.250;18.848;2022-12-31T12:07:41;10.58;;;6.33;;
37355;SDS011;48747;50.250;18.848;2022-12-31T12:09:44;15.68;;;8.60;;
37355;SDS011;48747;50.250;18.848;2022-12-31T12:11:56;16.37;;;9.58;;
37355;SDS011;48747;50.250;18.848;2022-12-31T12:13:55;13.90;;;8.10;;
37355;SDS011;48747;50.250;18.848;2022-12-31T12:15:59;12.00;;;6.97;;
37355;SDS011;48747;50.250;18.848;2022-12-31T12:18:17;11.93;;;6.78;;
37355;SDS011;48747;50.250;18.848;2022-12-31T12:20:14;13.08;;;7.37;;
37355;SDS011;48747;50.250;18.848;2022-12-31T12:22:24;12.20;;;6.95;;
37355;SDS011;48747;50.250;18.848;2022-12-31T12:24:29;11.43;;;6.20;;
37355;SDS011;48747;50.250;18.848;2022-12-31T12:26:33;15.40;;;9.43;;
37355;SDS011;48747;50.250;18.848;2022-12-31T12:28:42;14.25;;;7.70;;
37355;SDS011;48747;50.250;18.848;2022-12-31T12:30:52;17.27;;;9.05;;
37355;SDS011;48747;50.250;18.848;2022-12-31T12:32:56;15.53;;;8.00;;
37355;SDS011;48747;50.250;18.848;2022-12-31T12:35:11;29.65;;;14.20;;
37355;SDS011;48747;50.250;18.848;2022-12-31T12:37:29;24.85;;;11.93;;
37355;SDS011;48747;50.250;18.848;2022-12-31T12:39:34;11.60;;;7.53;;
37355;SDS011;48747;50.250;18.848;2022-12-31T12:41:37;20.60;;;9.68;;
37355;SDS011;48747;50.250;18.848;2022-12-31T12:43:40;13.18;;;7.42;;
37355;SDS011;48747;50.250;18.848;2022-12-31T12:45:44;15.20;;;8.35;;
37355;SDS011;48747;50.250;18.848;2022-12-31T12:47:49;14.55;;;8.70;;
37355;SDS011;48747;50.250;18.848;2022-12-31T12:49:54;16.45;;;9.68;;
37355;SDS011;48747;50.250;18.848;2022-12-31T12:57:27;10.53;;;6.10;;
37355;SDS011;48747;50.250;18.848;2022-12-31T12:59:43;14.78;;;8.90;;
37355;SDS011;48747;50.250;18.848;2022-12-31T13:02:16;12.30;;;7.90;;
37355;SDS011;48747;50.250;18.848;2022-12-31T13:04:55;16.73;;;9.48;;
37355;SDS011;48747;50.250;18.848;2022-12-31T13:08:05;13.32;;;7.22;;
37355;SDS011;48747;50.250;18.848;2022-12-31T13:14:36;19.67;;;9.55;;
37355;SDS011;48747;50.250;18.848;2022-12-31T13:19:18;14.25;;;8.60;;
37355;SDS011;48747;50.250;18.848;2022-12-31T13:23:55;14.40;;;9.00;;
37355;SDS011;48747;50.250;18.848;2022-12-31T13:26:13;11.60;;;7.37;;
37355;SDS011;48747;50.250;18.848;2022-12-31T13:28:16;12.93;;;8.23;;
37355;SDS011;48747;50.250;18.848;2022-12-31T13:30:30;11.35;;;6.92;;
37355;SDS011;48747;50.250;18.848;2022-12-31T13:32:42;11.08;;;6.87;;
37355;SDS011;48747;50.250;18.848;2022-12-31T13:34:50;11.65;;;6.92;;
37355;SDS011;48747;50.250;18.848;2022-12-31T13:36:57;16.32;;;9.20;;
